sensor_id;sensor_type;location;lat;lon;timestamp;temperature;humidity
12853;DHT22;6495;51.808;7.478;2022-07-29T00:01:18;19.70;73.50
12853;DHT22;6495;51.808;7.478;2022-07-29T00:03:47;19.70;73.60
12853;DHT22;6495;51.808;7.478;2022-07-29T00:06:15;19.70;73.70
12853;DHT22;6495;51.808;7.478;2022-07-29T00:08:44;19.70;73.60
12853;DHT22;6495;51.808;7.478;2022-07-29T00:11:14;19.60;73.70
12853;DHT22;6495;51.808;7.478;2022-07-29T00:13:42;19.60;73.90
12853;DHT22;6495;51.808;7.478;2022-07-29T00:16:16;19.60;74.00
12853;DHT22;6495;51.808;7.478;2022-07-29T00:18:44;19.60;74.00
12853;DHT22;6495;51.808;7.478;2022-07-29T00:21:13;19.50;74.10
12853;DHT22;6495;51.808;7.478;2022-07-29T00:23:42;19.50;74.20
12853;DHT22;6495;51.808;7.478;2022-07-29T00:26:10;19.50;74.20
12853;DHT22;6495;51.808;7.478;2022-07-29T00:28:40;19.50;74.20
12853;DHT22;6495;51.808;7.478;2022-07-29T00:31:08;19.50;74.30
12853;DHT22;6495;51.808;7.478;2022-07-29T00:33:37;19.40;74.40
12853;DHT22;6495;51.808;7.478;2022-07-29T00:36:05;19.40;74.30
12853;DHT22;6495;51.808;7.478;2022-07-29T00:38:32;19.40;74.20
12853;DHT22;6495;51.808;7.478;2022-07-29T00:41:00;19.40;74.40
12853;DHT22;6495;51.808;7.478;2022-07-29T00:43:28;19.40;74.30
12853;DHT22;6495;51.808;7.478;2022-07-29T00:45:58;19.40;74.50
12853;DHT22;6495;51.808;7.478;2022-07-29T00:48:26;19.40;74.70
12853;DHT22;6495;51.808;7.478;2022-07-29T00:50:55;19.30;74.80
12853;DHT22;6495;51.808;7.478;2022-07-29T00:53:24;19.30;74.80
12853;DHT22;6495;51.808;7.478;2022-07-29T00:55:53;19.30;74.80
12853;DHT22;6495;51.808;7.478;2022-07-29T00:58:23;19.30;74.90
12853;DHT22;6495;51.808;7.478;2022-07-29T01:00:52;19.30;74.90
12853;DHT22;6495;51.808;7.478;2022-07-29T01:03:22;19.30;74.90
12853;DHT22;6495;51.808;7.478;2022-07-29T01:05:50;19.20;74.90
12853;DHT22;6495;51.808;7.478;2022-07-29T01:08:20;19.20;75.20
12853;DHT22;6495;51.808;7.478;2022-07-29T01:10:49;19.20;75.10
12853;DHT22;6495;51.808;7.478;2022-07-29T01:13:20;19.10;75.20
12853;DHT22;6495;51.808;7.478;2022-07-29T01:15:55;19.10;75.40
12853;DHT22;6495;51.808;7.478;2022-07-29T01:18:32;19.10;75.60
12853;DHT22;6495;51.808;7.478;2022-07-29T01:21:27;19.10;75.60
12853;DHT22;6495;51.808;7.478;2022-07-29T01:24:33;19.00;75.70
12853;DHT22;6495;51.808;7.478;2022-07-29T01:27:26;19.00;75.70
12853;DHT22;6495;51.808;7.478;2022-07-29T01:30:09;19.00;75.90
12853;DHT22;6495;51.808;7.478;2022-07-29T01:32:43;18.90;75.90
12853;DHT22;6495;51.808;7.478;2022-07-29T01:35:20;18.90;75.90
12853;DHT22;6495;51.808;7.478;2022-07-29T01:37:57;18.90;76.00
12853;DHT22;6495;51.808;7.478;2022-07-29T01:40:33;18.90;76.00
12853;DHT22;6495;51.808;7.478;2022-07-29T01:43:11;18.90;75.90
12853;DHT22;6495;51.808;7.478;2022-07-29T01:45:55;18.90;76.00
12853;DHT22;6495;51.808;7.478;2022-07-29T01:48:31;18.80;76.10
12853;DHT22;6495;51.808;7.478;2022-07-29T01:51:07;18.80;76.50
12853;DHT22;6495;51.808;7.478;2022-07-29T01:53:45;18.80;76.50
12853;DHT22;6495;51.808;7.478;2022-07-29T01:56:17;18.80;76.50
12853;DHT22;6495;51.808;7.478;2022-07-29T01:58:48;18.70;76.70
12853;DHT22;6495;51.808;7.478;2022-07-29T02:01:20;18.70;76.50
12853;DHT22;6495;51.808;7.478;2022-07-29T02:03:50;18.70;76.70
12853;DHT22;6495;51.808;7.478;2022-07-29T02:06:22;18.70;77.10
12853;DHT22;6495;51.808;7.478;2022-07-29T02:08:52;18.70;77.20
12853;DHT22;6495;51.808;7.478;2022-07-29T02:11:22;18.60;77.00
12853;DHT22;6495;51.808;7.478;2022-07-29T02:13:52;18.60;77.20
12853;DHT22;6495;51.808;7.478;2022-07-29T02:16:24;18.60;77.30
12853;DHT22;6495;51.808;7.478;2022-07-29T02:18:57;18.50;77.20
12853;DHT22;6495;51.808;7.478;2022-07-29T02:21:29;18.50;77.30
12853;DHT22;6495;51.808;7.478;2022-07-29T02:24:01;18.50;77.50
12853;DHT22;6495;51.808;7.478;2022-07-29T02:26:32;18.50;77.60
12853;DHT22;6495;51.808;7.478;2022-07-29T02:29:02;18.50;77.60
12853;DHT22;6495;51.808;7.478;2022-07-29T02:31:34;18.50;77.50
12853;DHT22;6495;51.808;7.478;2022-07-29T02:34:06;18.50;77.70
12853;DHT22;6495;51.808;7.478;2022-07-29T02:36:36;18.50;78.30
12853;DHT22;6495;51.808;7.478;2022-07-29T02:39:07;18.40;77.70
12853;DHT22;6495;51.808;7.478;2022-07-29T02:41:41;18.40;78.20
12853;DHT22;6495;51.808;7.478;2022-07-29T02:44:12;18.40;78.30
12853;DHT22;6495;51.808;7.478;2022-07-29T02:46:47;18.40;78.40
12853;DHT22;6495;51.808;7.478;2022-07-29T02:49:27;18.40;78.80
12853;DHT22;6495;51.808;7.478;2022-07-29T02:52:04;18.40;79.70
12853;DHT22;6495;51.808;7.478;2022-07-29T02:54:39;18.30;78.60
12853;DHT22;6495;51.808;7.478;2022-07-29T02:57:20;18.30;78.60
12853;DHT22;6495;51.808;7.478;2022-07-29T02:59:51;18.30;78.70
12853;DHT22;6495;51.808;7.478;2022-07-29T03:02:24;18.30;78.60
12853;DHT22;6495;51.808;7.478;2022-07-29T03:04:55;18.30;78.60
12853;DHT22;6495;51.808;7.478;2022-07-29T03:07:26;18.30;78.70
12853;DHT22;6495;51.808;7.478;2022-07-29T03:09:56;18.20;78.50
12853;DHT22;6495;51.808;7.478;2022-07-29T03:12:25;18.20;78.60
12853;DHT22;6495;51.808;7.478;2022-07-29T03:14:55;18.20;78.70
12853;DHT22;6495;51.808;7.478;2022-07-29T03:17:25;18.20;78.70
12853;DHT22;6495;51.808;7.478;2022-07-29T03:19:54;18.20;78.80
12853;DHT22;6495;51.808;7.478;2022-07-29T03:22:24;18.20;79.10
12853;DHT22;6495;51.808;7.478;2022-07-29T03:24:52;18.20;79.20
12853;DHT22;6495;51.808;7.478;2022-07-29T03:27:20;18.20;79.40
12853;DHT22;6495;51.808;7.478;2022-07-29T03:29:49;18.10;79.40
12853;DHT22;6495;51.808;7.478;2022-07-29T03:32:17;18.10;79.30
12853;DHT22;6495;51.808;7.478;2022-07-29T03:34:52;18.10;79.40
12853;DHT22;6495;51.808;7.478;2022-07-29T03:37:20;18.10;79.40
12853;DHT22;6495;51.808;7.478;2022-07-29T03:39:49;18.10;79.70
12853;DHT22;6495;51.808;7.478;2022-07-29T03:42:20;18.10;79.60
12853;DHT22;6495;51.808;7.478;2022-07-29T03:44:59;18.10;79.90
12853;DHT22;6495;51.808;7.478;2022-07-29T03:47:33;18.10;80.30
12853;DHT22;6495;51.808;7.478;2022-07-29T03:50:20;18.10;80.10
12853;DHT22;6495;51.808;7.478;2022-07-29T03:52:49;18.00;80.10
12853;DHT22;6495;51.808;7.478;2022-07-29T03:55:17;18.00;80.50
12853;DHT22;6495;51.808;7.478;2022-07-29T03:57:46;18.00;80.60
12853;DHT22;6495;51.808;7.478;2022-07-29T04:00:17;18.10;80.70
12853;DHT22;6495;51.808;7.478;2022-07-29T04:02:46;18.00;80.70
12853;DHT22;6495;51.808;7.478;2022-07-29T04:05:16;18.00;80.60
12853;DHT22;6495;51.808;7.478;2022-07-29T04:07:47;18.00;80.50
12853;DHT22;6495;51.808;7.478;2022-07-29T04:10:16;18.00;80.40
12853;DHT22;6495;51.808;7.478;2022-07-29T04:12:57;18.00;80.60
12853;DHT22;6495;51.808;7.478;2022-07-29T04:15:26;18.00;80.80
12853;DHT22;6495;51.808;7.478;2022-07-29T04:17:57;18.00;80.70
12853;DHT22;6495;51.808;7.478;2022-07-29T04:20:26;18.00;80.80
12853;DHT22;6495;51.808;7.478;2022-07-29T04:22:55;18.00;80.80
12853;DHT22;6495;51.808;7.478;2022-07-29T04:25:23;18.00;80.80
12853;DHT22;6495;51.808;7.478;2022-07-29T04:27:51;18.00;80.70
12853;DHT22;6495;51.808;7.478;2022-07-29T04:30:28;17.90;80.70
12853;DHT22;6495;51.808;7.478;2022-07-29T04:32:57;17.90;80.90
12853;DHT22;6495;51.808;7.478;2022-07-29T04:35:25;17.90;80.80
12853;DHT22;6495;51.808;7.478;2022-07-29T04:37:55;17.90;81.10
12853;DHT22;6495;51.808;7.478;2022-07-29T04:40:23;17.90;81.10
12853;DHT22;6495;51.808;7.478;2022-07-29T04:42:51;17.90;81.30
12853;DHT22;6495;51.808;7.478;2022-07-29T04:45:20;17.90;81.30
12853;DHT22;6495;51.808;7.478;2022-07-29T04:47:48;17.90;81.40
12853;DHT22;6495;51.808;7.478;2022-07-29T04:50:16;17.90;81.60
12853;DHT22;6495;51.808;7.478;2022-07-29T04:52:44;17.90;81.50
12853;DHT22;6495;51.808;7.478;2022-07-29T04:55:14;17.90;81.90
12853;DHT22;6495;51.808;7.478;2022-07-29T04:57:42;17.80;81.80
12853;DHT22;6495;51.808;7.478;2022-07-29T05:00:10;17.80;82.20
12853;DHT22;6495;51.808;7.478;2022-07-29T05:02:39;17.90;82.50
12853;DHT22;6495;51.808;7.478;2022-07-29T05:05:08;17.80;82.70
12853;DHT22;6495;51.808;7.478;2022-07-29T05:07:36;17.90;83.40
12853;DHT22;6495;51.808;7.478;2022-07-29T05:10:05;17.80;83.40
12853;DHT22;6495;51.808;7.478;2022-07-29T05:12:34;17.90;83.80
12853;DHT22;6495;51.808;7.478;2022-07-29T05:15:03;17.90;84.90
12853;DHT22;6495;51.808;7.478;2022-07-29T05:17:32;17.90;84.30
12853;DHT22;6495;51.808;7.478;2022-07-29T05:20:00;17.90;84.50
12853;DHT22;6495;51.808;7.478;2022-07-29T05:22:28;17.90;84.60
12853;DHT22;6495;51.808;7.478;2022-07-29T05:24:56;17.90;84.80
12853;DHT22;6495;51.808;7.478;2022-07-29T05:27:24;17.90;85.10
12853;DHT22;6495;51.808;7.478;2022-07-29T05:29:53;17.90;85.60
12853;DHT22;6495;51.808;7.478;2022-07-29T05:32:21;17.90;85.50
12853;DHT22;6495;51.808;7.478;2022-07-29T05:34:49;17.90;85.70
12853;DHT22;6495;51.808;7.478;2022-07-29T05:37:18;17.90;85.90
12853;DHT22;6495;51.808;7.478;2022-07-29T05:39:46;17.90;85.60
12853;DHT22;6495;51.808;7.478;2022-07-29T05:42:22;17.90;85.30
12853;DHT22;6495;51.808;7.478;2022-07-29T05:44:50;17.90;85.80
12853;DHT22;6495;51.808;7.478;2022-07-29T05:47:20;17.80;85.80
12853;DHT22;6495;51.808;7.478;2022-07-29T05:49:48;17.80;85.80
12853;DHT22;6495;51.808;7.478;2022-07-29T05:52:17;17.90;86.10
12853;DHT22;6495;51.808;7.478;2022-07-29T05:54:45;17.90;85.70
12853;DHT22;6495;51.808;7.478;2022-07-29T05:57:15;17.90;86.10
12853;DHT22;6495;51.808;7.478;2022-07-29T05:59:44;17.90;86.20
12853;DHT22;6495;51.808;7.478;2022-07-29T06:02:14;17.90;86.20
12853;DHT22;6495;51.808;7.478;2022-07-29T06:04:43;18.00;86.50
12853;DHT22;6495;51.808;7.478;2022-07-29T06:07:11;18.00;86.30
12853;DHT22;6495;51.808;7.478;2022-07-29T06:09:39;18.00;86.80
12853;DHT22;6495;51.808;7.478;2022-07-29T06:12:07;18.00;86.80
12853;DHT22;6495;51.808;7.478;2022-07-29T06:14:36;18.00;87.00
12853;DHT22;6495;51.808;7.478;2022-07-29T06:17:04;18.00;87.10
12853;DHT22;6495;51.808;7.478;2022-07-29T06:19:35;18.10;87.30
12853;DHT22;6495;51.808;7.478;2022-07-29T06:22:03;18.10;86.70
12853;DHT22;6495;51.808;7.478;2022-07-29T06:24:32;18.10;86.60
12853;DHT22;6495;51.808;7.478;2022-07-29T06:27:00;18.10;87.10
12853;DHT22;6495;51.808;7.478;2022-07-29T06:29:28;18.10;87.60
12853;DHT22;6495;51.808;7.478;2022-07-29T06:31:56;18.10;87.00
12853;DHT22;6495;51.808;7.478;2022-07-29T06:34:24;18.10;87.10
12853;DHT22;6495;51.808;7.478;2022-07-29T06:36:53;18.10;87.40
12853;DHT22;6495;51.808;7.478;2022-07-29T06:39:21;18.00;87.40
12853;DHT22;6495;51.808;7.478;2022-07-29T06:41:50;18.00;87.40
12853;DHT22;6495;51.808;7.478;2022-07-29T06:44:18;18.00;87.50
12853;DHT22;6495;51.808;7.478;2022-07-29T06:46:46;18.00;87.40
12853;DHT22;6495;51.808;7.478;2022-07-29T06:49:16;18.00;87.60
12853;DHT22;6495;51.808;7.478;2022-07-29T06:51:44;18.00;87.70
12853;DHT22;6495;51.808;7.478;2022-07-29T06:54:14;18.00;87.80
12853;DHT22;6495;51.808;7.478;2022-07-29T06:56:43;18.00;87.90
12853;DHT22;6495;51.808;7.478;2022-07-29T06:59:11;18.00;88.10
12853;DHT22;6495;51.808;7.478;2022-07-29T07:01:41;18.10;88.20
12853;DHT22;6495;51.808;7.478;2022-07-29T07:04:10;18.10;88.20
12853;DHT22;6495;51.808;7.478;2022-07-29T07:06:40;18.10;88.10
12853;DHT22;6495;51.808;7.478;2022-07-29T07:09:08;18.10;88.00
12853;DHT22;6495;51.808;7.478;2022-07-29T07:11:37;18.10;88.00
12853;DHT22;6495;51.808;7.478;2022-07-29T07:14:05;18.10;87.90
12853;DHT22;6495;51.808;7.478;2022-07-29T07:16:33;18.20;87.90
12853;DHT22;6495;51.808;7.478;2022-07-29T07:19:02;18.20;87.80
12853;DHT22;6495;51.808;7.478;2022-07-29T07:21:30;18.20;87.70
12853;DHT22;6495;51.808;7.478;2022-07-29T07:23:58;18.20;87.80
12853;DHT22;6495;51.808;7.478;2022-07-29T07:26:28;18.20;87.60
12853;DHT22;6495;51.808;7.478;2022-07-29T07:28:57;18.20;87.60
12853;DHT22;6495;51.808;7.478;2022-07-29T07:31:26;18.30;87.70
12853;DHT22;6495;51.808;7.478;2022-07-29T07:33:55;18.30;87.70
12853;DHT22;6495;51.808;7.478;2022-07-29T07:36:23;18.30;87.70
12853;DHT22;6495;51.808;7.478;2022-07-29T07:38:51;18.30;87.70
12853;DHT22;6495;51.808;7.478;2022-07-29T07:41:19;18.30;87.70
12853;DHT22;6495;51.808;7.478;2022-07-29T07:43:48;18.30;87.90
12853;DHT22;6495;51.808;7.478;2022-07-29T07:46:17;18.40;88.80
12853;DHT22;6495;51.808;7.478;2022-07-29T07:48:45;18.40;88.10
12853;DHT22;6495;51.808;7.478;2022-07-29T07:51:13;18.30;88.10
12853;DHT22;6495;51.808;7.478;2022-07-29T07:53:41;18.40;88.30
12853;DHT22;6495;51.808;7.478;2022-07-29T07:56:11;18.40;88.50
12853;DHT22;6495;51.808;7.478;2022-07-29T07:58:39;18.40;88.50
12853;DHT22;6495;51.808;7.478;2022-07-29T08:01:07;18.50;88.60
12853;DHT22;6495;51.808;7.478;2022-07-29T08:03:37;18.40;88.50
12853;DHT22;6495;51.808;7.478;2022-07-29T08:06:05;18.50;88.60
12853;DHT22;6495;51.808;7.478;2022-07-29T08:08:33;18.40;88.70
12853;DHT22;6495;51.808;7.478;2022-07-29T08:11:01;18.50;89.00
12853;DHT22;6495;51.808;7.478;2022-07-29T08:13:35;18.50;89.30
12853;DHT22;6495;51.808;7.478;2022-07-29T08:16:05;18.50;89.50
12853;DHT22;6495;51.808;7.478;2022-07-29T08:18:44;18.50;89.60
12853;DHT22;6495;51.808;7.478;2022-07-29T08:21:14;18.50;89.70
12853;DHT22;6495;51.808;7.478;2022-07-29T08:23:44;18.50;90.00
12853;DHT22;6495;51.808;7.478;2022-07-29T08:26:27;18.60;90.10
12853;DHT22;6495;51.808;7.478;2022-07-29T08:28:55;18.60;90.10
12853;DHT22;6495;51.808;7.478;2022-07-29T08:31:23;18.60;90.30
12853;DHT22;6495;51.808;7.478;2022-07-29T08:33:52;18.60;90.30
12853;DHT22;6495;51.808;7.478;2022-07-29T08:36:22;18.70;90.40
12853;DHT22;6495;51.808;7.478;2022-07-29T08:38:50;18.70;90.70
12853;DHT22;6495;51.808;7.478;2022-07-29T08:41:19;18.70;90.80
12853;DHT22;6495;51.808;7.478;2022-07-29T08:43:47;18.80;90.80
12853;DHT22;6495;51.808;7.478;2022-07-29T08:46:15;18.90;90.90
12853;DHT22;6495;51.808;7.478;2022-07-29T08:48:44;18.90;90.90
12853;DHT22;6495;51.808;7.478;2022-07-29T08:51:15;18.90;90.90
12853;DHT22;6495;51.808;7.478;2022-07-29T08:53:46;19.00;91.10
12853;DHT22;6495;51.808;7.478;2022-07-29T08:56:17;19.10;91.30
12853;DHT22;6495;51.808;7.478;2022-07-29T08:58:47;19.10;91.10
12853;DHT22;6495;51.808;7.478;2022-07-29T09:01:22;19.20;91.10
12853;DHT22;6495;51.808;7.478;2022-07-29T09:04:04;19.30;91.20
12853;DHT22;6495;51.808;7.478;2022-07-29T09:06:39;19.30;91.30
12853;DHT22;6495;51.808;7.478;2022-07-29T09:09:10;19.30;91.20
12853;DHT22;6495;51.808;7.478;2022-07-29T09:11:40;19.30;91.10
12853;DHT22;6495;51.808;7.478;2022-07-29T09:14:11;19.40;91.00
12853;DHT22;6495;51.808;7.478;2022-07-29T09:16:48;19.40;90.90
12853;DHT22;6495;51.808;7.478;2022-07-29T09:19:29;19.40;91.10
12853;DHT22;6495;51.808;7.478;2022-07-29T09:22:00;19.50;91.20
12853;DHT22;6495;51.808;7.478;2022-07-29T09:24:43;19.50;91.30
12853;DHT22;6495;51.808;7.478;2022-07-29T09:27:21;19.60;91.40
12853;DHT22;6495;51.808;7.478;2022-07-29T09:29:56;19.60;91.40
12853;DHT22;6495;51.808;7.478;2022-07-29T09:32:25;19.70;91.50
12853;DHT22;6495;51.808;7.478;2022-07-29T09:35:13;19.70;91.60
12853;DHT22;6495;51.808;7.478;2022-07-29T09:37:44;19.80;92.00
12853;DHT22;6495;51.808;7.478;2022-07-29T09:40:14;19.90;92.00
12853;DHT22;6495;51.808;7.478;2022-07-29T09:42:44;19.90;91.80
12853;DHT22;6495;51.808;7.478;2022-07-29T09:45:26;19.90;91.60
12853;DHT22;6495;51.808;7.478;2022-07-29T09:47:56;20.00;91.60
12853;DHT22;6495;51.808;7.478;2022-07-29T09:50:37;20.00;91.50
12853;DHT22;6495;51.808;7.478;2022-07-29T09:53:08;20.00;91.60
12853;DHT22;6495;51.808;7.478;2022-07-29T09:55:47;20.00;91.60
12853;DHT22;6495;51.808;7.478;2022-07-29T09:58:18;20.00;91.80
12853;DHT22;6495;51.808;7.478;2022-07-29T10:00:48;20.00;91.80
12853;DHT22;6495;51.808;7.478;2022-07-29T10:03:17;20.00;91.80
12853;DHT22;6495;51.808;7.478;2022-07-29T10:05:46;20.00;91.90
12853;DHT22;6495;51.808;7.478;2022-07-29T10:08:33;19.90;91.90
12853;DHT22;6495;51.808;7.478;2022-07-29T10:11:12;19.90;91.90
12853;DHT22;6495;51.808;7.478;2022-07-29T10:13:43;19.90;92.20
12853;DHT22;6495;51.808;7.478;2022-07-29T10:16:15;19.90;92.10
12853;DHT22;6495;51.808;7.478;2022-07-29T10:18:44;19.80;92.00
12853;DHT22;6495;51.808;7.478;2022-07-29T10:21:13;19.80;92.00
12853;DHT22;6495;51.808;7.478;2022-07-29T10:24:04;19.90;92.30
12853;DHT22;6495;51.808;7.478;2022-07-29T10:26:41;19.90;92.20
12853;DHT22;6495;51.808;7.478;2022-07-29T10:29:10;19.80;92.10
12853;DHT22;6495;51.808;7.478;2022-07-29T10:31:47;19.90;92.30
12853;DHT22;6495;51.808;7.478;2022-07-29T10:34:25;19.90;92.30
12853;DHT22;6495;51.808;7.478;2022-07-29T10:37:11;19.90;92.40
12853;DHT22;6495;51.808;7.478;2022-07-29T10:39:55;19.80;92.50
12853;DHT22;6495;51.808;7.478;2022-07-29T10:42:52;19.80;92.50
12853;DHT22;6495;51.808;7.478;2022-07-29T10:45:21;19.80;92.40
12853;DHT22;6495;51.808;7.478;2022-07-29T10:48:03;19.80;92.40
12853;DHT22;6495;51.808;7.478;2022-07-29T10:50:51;19.80;92.60
12853;DHT22;6495;51.808;7.478;2022-07-29T10:53:21;19.80;92.70
12853;DHT22;6495;51.808;7.478;2022-07-29T10:55:52;19.80;92.60
12853;DHT22;6495;51.808;7.478;2022-07-29T10:58:21;19.80;92.80
12853;DHT22;6495;51.808;7.478;2022-07-29T11:00:52;19.80;92.70
12853;DHT22;6495;51.808;7.478;2022-07-29T11:03:42;19.80;92.80
12853;DHT22;6495;51.808;7.478;2022-07-29T11:06:17;19.80;93.10
12853;DHT22;6495;51.808;7.478;2022-07-29T11:09:16;19.80;93.20
12853;DHT22;6495;51.808;7.478;2022-07-29T11:12:02;19.80;93.30
12853;DHT22;6495;51.808;7.478;2022-07-29T11:14:56;19.80;93.40
12853;DHT22;6495;51.808;7.478;2022-07-29T11:17:26;19.80;93.60
12853;DHT22;6495;51.808;7.478;2022-07-29T11:20:31;19.80;93.50
12853;DHT22;6495;51.808;7.478;2022-07-29T11:23:26;19.70;93.90
12853;DHT22;6495;51.808;7.478;2022-07-29T11:26:17;19.70;93.90
12853;DHT22;6495;51.808;7.478;2022-07-29T11:28:55;19.60;93.80
12853;DHT22;6495;51.808;7.478;2022-07-29T11:31:36;19.60;93.60
12853;DHT22;6495;51.808;7.478;2022-07-29T11:34:22;19.50;93.70
12853;DHT22;6495;51.808;7.478;2022-07-29T11:37:18;19.40;94.00
12853;DHT22;6495;51.808;7.478;2022-07-29T11:40:14;19.30;94.20
12853;DHT22;6495;51.808;7.478;2022-07-29T11:42:45;19.20;94.30
12853;DHT22;6495;51.808;7.478;2022-07-29T11:45:45;19.10;94.20
12853;DHT22;6495;51.808;7.478;2022-07-29T11:48:18;19.10;95.00
12853;DHT22;6495;51.808;7.478;2022-07-29T11:50:58;19.10;94.60
12853;DHT22;6495;51.808;7.478;2022-07-29T11:53:27;19.10;94.80
12853;DHT22;6495;51.808;7.478;2022-07-29T11:55:59;19.10;95.00
12853;DHT22;6495;51.808;7.478;2022-07-29T11:58:28;19.00;95.10
12853;DHT22;6495;51.808;7.478;2022-07-29T12:00:59;19.00;95.30
12853;DHT22;6495;51.808;7.478;2022-07-29T12:03:31;19.00;95.60
12853;DHT22;6495;51.808;7.478;2022-07-29T12:06:03;19.00;95.70
12853;DHT22;6495;51.808;7.478;2022-07-29T12:08:41;18.90;95.90
12853;DHT22;6495;51.808;7.478;2022-07-29T12:11:17;18.90;96.20
12853;DHT22;6495;51.808;7.478;2022-07-29T12:13:49;18.90;96.50
12853;DHT22;6495;51.808;7.478;2022-07-29T12:16:19;18.90;96.50
12853;DHT22;6495;51.808;7.478;2022-07-29T12:18:56;18.90;96.80
12853;DHT22;6495;51.808;7.478;2022-07-29T12:21:25;18.90;97.00
12853;DHT22;6495;51.808;7.478;2022-07-29T12:23:56;19.00;97.20
12853;DHT22;6495;51.808;7.478;2022-07-29T12:26:35;19.00;97.40
12853;DHT22;6495;51.808;7.478;2022-07-29T12:29:06;19.00;97.70
12853;DHT22;6495;51.808;7.478;2022-07-29T12:31:42;19.10;98.10
12853;DHT22;6495;51.808;7.478;2022-07-29T12:34:12;19.10;98.30
12853;DHT22;6495;51.808;7.478;2022-07-29T12:36:43;19.20;98.30
12853;DHT22;6495;51.808;7.478;2022-07-29T12:39:11;19.30;98.60
12853;DHT22;6495;51.808;7.478;2022-07-29T12:41:39;19.40;98.60
12853;DHT22;6495;51.808;7.478;2022-07-29T12:44:07;19.50;98.70
12853;DHT22;6495;51.808;7.478;2022-07-29T12:46:35;19.60;98.60
12853;DHT22;6495;51.808;7.478;2022-07-29T12:49:06;19.60;98.60
12853;DHT22;6495;51.808;7.478;2022-07-29T12:51:36;19.70;98.50
12853;DHT22;6495;51.808;7.478;2022-07-29T12:54:07;19.70;98.50
12853;DHT22;6495;51.808;7.478;2022-07-29T12:56:37;19.80;98.70
12853;DHT22;6495;51.808;7.478;2022-07-29T12:59:13;19.80;98.60
12853;DHT22;6495;51.808;7.478;2022-07-29T13:01:43;19.90;98.80
12853;DHT22;6495;51.808;7.478;2022-07-29T13:04:23;19.90;98.90
12853;DHT22;6495;51.808;7.478;2022-07-29T13:06:59;20.00;99.10
12853;DHT22;6495;51.808;7.478;2022-07-29T13:09:40;20.20;99.20
12853;DHT22;6495;51.808;7.478;2022-07-29T13:12:11;20.30;99.40
12853;DHT22;6495;51.808;7.478;2022-07-29T13:14:41;20.50;99.40
12853;DHT22;6495;51.808;7.478;2022-07-29T13:17:12;20.60;99.40
12853;DHT22;6495;51.808;7.478;2022-07-29T13:19:45;20.70;99.30
12853;DHT22;6495;51.808;7.478;2022-07-29T13:22:16;20.90;99.30
12853;DHT22;6495;51.808;7.478;2022-07-29T13:24:50;21.00;99.20
12853;DHT22;6495;51.808;7.478;2022-07-29T13:27:22;21.10;99.00
12853;DHT22;6495;51.808;7.478;2022-07-29T13:29:53;21.20;99.00
12853;DHT22;6495;51.808;7.478;2022-07-29T13:32:23;21.40;98.90
12853;DHT22;6495;51.808;7.478;2022-07-29T13:34:56;21.50;98.70
12853;DHT22;6495;51.808;7.478;2022-07-29T13:37:25;21.60;98.30
12853;DHT22;6495;51.808;7.478;2022-07-29T13:39:56;21.70;98.00
12853;DHT22;6495;51.808;7.478;2022-07-29T13:42:26;21.80;97.90
12853;DHT22;6495;51.808;7.478;2022-07-29T13:44:54;21.90;97.80
12853;DHT22;6495;51.808;7.478;2022-07-29T13:47:22;22.00;97.90
12853;DHT22;6495;51.808;7.478;2022-07-29T13:50:00;22.10;97.90
12853;DHT22;6495;51.808;7.478;2022-07-29T13:52:28;22.20;97.70
12853;DHT22;6495;51.808;7.478;2022-07-29T13:54:57;22.30;97.60
12853;DHT22;6495;51.808;7.478;2022-07-29T13:57:25;22.30;97.40
12853;DHT22;6495;51.808;7.478;2022-07-29T13:59:54;22.40;97.20
12853;DHT22;6495;51.808;7.478;2022-07-29T14:02:23;22.40;97.10
12853;DHT22;6495;51.808;7.478;2022-07-29T14:04:52;22.50;97.00
12853;DHT22;6495;51.808;7.478;2022-07-29T14:07:22;22.60;96.80
12853;DHT22;6495;51.808;7.478;2022-07-29T14:09:51;22.50;96.70
12853;DHT22;6495;51.808;7.478;2022-07-29T14:12:19;22.60;96.60
12853;DHT22;6495;51.808;7.478;2022-07-29T14:14:47;22.60;96.50
12853;DHT22;6495;51.808;7.478;2022-07-29T14:17:16;22.70;96.50
12853;DHT22;6495;51.808;7.478;2022-07-29T14:19:44;22.80;96.60
12853;DHT22;6495;51.808;7.478;2022-07-29T14:22:12;22.90;96.50
12853;DHT22;6495;51.808;7.478;2022-07-29T14:24:43;23.00;96.40
12853;DHT22;6495;51.808;7.478;2022-07-29T14:27:11;23.10;96.40
12853;DHT22;6495;51.808;7.478;2022-07-29T14:29:40;23.20;96.30
12853;DHT22;6495;51.808;7.478;2022-07-29T14:32:09;23.30;95.80
12853;DHT22;6495;51.808;7.478;2022-07-29T14:34:38;23.30;95.50
12853;DHT22;6495;51.808;7.478;2022-07-29T14:37:07;23.30;95.80
12853;DHT22;6495;51.808;7.478;2022-07-29T14:39:43;23.30;95.70
12853;DHT22;6495;51.808;7.478;2022-07-29T14:42:11;23.40;95.80
12853;DHT22;6495;51.808;7.478;2022-07-29T14:44:39;23.50;95.80
12853;DHT22;6495;51.808;7.478;2022-07-29T14:47:10;23.50;95.80
12853;DHT22;6495;51.808;7.478;2022-07-29T14:49:38;23.70;96.00
12853;DHT22;6495;51.808;7.478;2022-07-29T14:52:07;23.90;95.80
12853;DHT22;6495;51.808;7.478;2022-07-29T14:54:35;24.00;95.50
12853;DHT22;6495;51.808;7.478;2022-07-29T14:57:05;24.10;95.20
12853;DHT22;6495;51.808;7.478;2022-07-29T14:59:33;24.20;95.30
12853;DHT22;6495;51.808;7.478;2022-07-29T15:02:01;24.30;95.50
12853;DHT22;6495;51.808;7.478;2022-07-29T15:04:30;24.40;94.90
12853;DHT22;6495;51.808;7.478;2022-07-29T15:06:58;24.60;94.90
12853;DHT22;6495;51.808;7.478;2022-07-29T15:09:26;24.70;94.60
12853;DHT22;6495;51.808;7.478;2022-07-29T15:11:55;24.70;94.40
12853;DHT22;6495;51.808;7.478;2022-07-29T15:14:25;24.70;94.30
12853;DHT22;6495;51.808;7.478;2022-07-29T15:16:53;24.80;94.30
12853;DHT22;6495;51.808;7.478;2022-07-29T15:19:21;24.80;94.00
12853;DHT22;6495;51.808;7.478;2022-07-29T15:21:50;24.80;94.10
12853;DHT22;6495;51.808;7.478;2022-07-29T15:24:20;24.80;94.10
12853;DHT22;6495;51.808;7.478;2022-07-29T15:26:48;24.90;93.90
12853;DHT22;6495;51.808;7.478;2022-07-29T15:29:16;24.90;93.70
12853;DHT22;6495;51.808;7.478;2022-07-29T15:31:46;25.00;93.60
12853;DHT22;6495;51.808;7.478;2022-07-29T15:34:14;25.00;93.50
12853;DHT22;6495;51.808;7.478;2022-07-29T15:36:43;25.10;93.40
12853;DHT22;6495;51.808;7.478;2022-07-29T15:39:20;25.10;93.20
12853;DHT22;6495;51.808;7.478;2022-07-29T15:42:07;25.10;92.90
12853;DHT22;6495;51.808;7.478;2022-07-29T15:44:35;25.20;92.80
12853;DHT22;6495;51.808;7.478;2022-07-29T15:47:05;25.20;92.80
12853;DHT22;6495;51.808;7.478;2022-07-29T15:49:35;25.30;93.20
12853;DHT22;6495;51.808;7.478;2022-07-29T15:52:16;25.40;92.70
12853;DHT22;6495;51.808;7.478;2022-07-29T15:54:55;25.40;92.60
12853;DHT22;6495;51.808;7.478;2022-07-29T15:57:25;25.40;92.50
12853;DHT22;6495;51.808;7.478;2022-07-29T15:59:53;25.50;92.50
12853;DHT22;6495;51.808;7.478;2022-07-29T16:02:23;25.50;92.30
12853;DHT22;6495;51.808;7.478;2022-07-29T16:04:51;25.50;91.90
12853;DHT22;6495;51.808;7.478;2022-07-29T16:07:19;25.50;91.80
12853;DHT22;6495;51.808;7.478;2022-07-29T16:09:51;25.50;91.80
12853;DHT22;6495;51.808;7.478;2022-07-29T16:12:19;25.50;91.60
12853;DHT22;6495;51.808;7.478;2022-07-29T16:14:48;25.60;91.80